createdAt,value
2022-11-29T00:00:55.741Z,33.33
2022-11-29T00:04:00.666Z,35.75
2022-11-29T00:07:05.058Z,36.45
2022-11-29T00:10:09.241Z,34.30
2022-11-29T00:13:13.478Z,33.60
2022-11-29T00:16:17.586Z,32.15
2022-11-29T00:19:22.478Z,34.55
2022-11-29T00:22:26.403Z,34.05
2022-11-29T00:25:30.609Z,34.17
2022-11-29T00:28:35.810Z,36.10
2022-11-29T00:31:40.716Z,32.78
2022-11-29T00:34:45.018Z,33.42
2022-11-29T00:37:49.490Z,39.08
2022-11-29T00:40:53.140Z,34.05
2022-11-29T00:43:57.048Z,36.83
2022-11-29T00:47:01.375Z,37.58
2022-11-29T00:50:06.833Z,36.70
2022-11-29T00:53:10.734Z,33.95
2022-11-29T00:56:14.545Z,34.10
2022-11-29T00:59:18.892Z,36.88
2022-11-29T01:02:23.246Z,33.55
2022-11-29T01:05:27.159Z,35.92
2022-11-29T01:08:31.682Z,33.83
2022-11-29T01:11:35.933Z,36.17
2022-11-29T01:14:39.929Z,35.22
2022-11-29T01:17:44.460Z,37.55
2022-11-29T01:20:59.815Z,35.53
2022-11-29T01:24:04.138Z,35.92
2022-11-29T01:27:08.527Z,41.00
2022-11-29T01:30:14.702Z,36.80
2022-11-29T01:33:18.879Z,36.35
2022-11-29T01:36:23.555Z,36.13
2022-11-29T01:39:27.641Z,36.80
2022-11-29T01:42:31.774Z,33.13
2022-11-29T01:45:38.178Z,34.80
2022-11-29T01:48:42.464Z,35.65
2022-11-29T01:51:51.488Z,35.60
2022-11-29T01:54:58.373Z,36.72
2022-11-29T01:58:04.324Z,34.00
2022-11-29T02:01:08.277Z,32.40
2022-11-29T02:04:12.554Z,36.20
2022-11-29T02:07:16.632Z,33.38
2022-11-29T02:10:32.668Z,33.58
2022-11-29T02:13:50.802Z,33.38
2022-11-29T02:17:08.143Z,34.05
2022-11-29T02:20:32.414Z,33.35
2022-11-29T02:23:39.746Z,36.00
2022-11-29T02:26:49.530Z,33.45
2022-11-29T02:30:13.145Z,33.20
2022-11-29T02:36:50.873Z,35.65
2022-11-29T02:40:07.560Z,40.03
2022-11-29T02:43:19.782Z,31.55
2022-11-29T02:46:34.925Z,31.63
2022-11-29T02:49:43.795Z,33.50
2022-11-29T02:52:59.458Z,32.05
2022-11-29T02:56:23.223Z,34.85
2022-11-29T03:03:03.404Z,32.15
2022-11-29T03:06:35.210Z,32.15
2022-11-29T03:09:46.931Z,32.03
2022-11-29T03:12:53.673Z,33.67
2022-11-29T03:16:18.960Z,36.00
2022-11-29T03:20:12.576Z,34.78
2022-11-29T03:23:27.796Z,32.57
2022-11-29T03:26:59.516Z,34.00
2022-11-29T03:30:09.598Z,33.00
2022-11-29T03:33:24.053Z,33.50
2022-11-29T03:36:37.325Z,34.05
2022-11-29T03:39:44.381Z,32.97
2022-11-29T03:43:06.789Z,33.13
2022-11-29T03:46:31.883Z,31.50
2022-11-29T03:49:37.775Z,34.25
2022-11-29T03:52:49.779Z,31.77
2022-11-29T03:55:59.067Z,32.72
2022-11-29T03:59:29.989Z,32.75
2022-11-29T04:02:43.584Z,32.15
2022-11-29T04:06:20.911Z,34.15
2022-11-29T04:10:12.721Z,34.75
2022-11-29T04:13:53.069Z,30.40
2022-11-29T04:16:59.780Z,34.15
2022-11-29T04:20:19.740Z,32.85
2022-11-29T04:23:45.640Z,32.55
2022-11-29T04:27:04.574Z,32.85
2022-11-29T04:30:21.367Z,33.88
2022-11-29T04:33:34.543Z,32.78
2022-11-29T04:36:55.521Z,33.17
2022-11-29T04:40:22.120Z,33.60
2022-11-29T04:43:53.897Z,34.88
2022-11-29T04:47:13.139Z,34.75
2022-11-29T04:50:55.336Z,35.30
2022-11-29T04:54:19.348Z,34.35
2022-11-29T04:57:43.025Z,35.28
2022-11-29T05:00:57.055Z,34.55
2022-11-29T05:04:29.629Z,34.67
2022-11-29T05:07:50.383Z,34.45
2022-11-29T05:11:29.539Z,31.83
2022-11-29T05:14:54.696Z,32.58
2022-11-29T05:18:07.565Z,37.53
2022-11-29T05:21:19.025Z,33.00
2022-11-29T05:24:50.851Z,32.13
2022-11-29T05:28:21.350Z,30.67
2022-11-29T05:31:45.953Z,33.78
2022-11-29T05:35:07.909Z,35.92
2022-11-29T05:38:24.289Z,33.08
2022-11-29T05:41:40.267Z,35.30
2022-11-29T05:45:07.822Z,32.80
2022-11-29T05:48:29.801Z,34.05
2022-11-29T05:51:58.604Z,31.63
2022-11-29T05:55:16.540Z,35.30
2022-11-29T05:58:50.108Z,33.38
2022-11-29T06:02:19.352Z,33.33
2022-11-29T06:05:40.223Z,32.58
2022-11-29T06:09:12.787Z,31.35
2022-11-29T06:12:23.446Z,33.70
2022-11-29T06:16:18.035Z,29.55
2022-11-29T06:19:54.081Z,32.55
2022-11-29T06:23:29.093Z,32.03
2022-11-29T06:26:39.434Z,32.17
2022-11-29T06:29:43.495Z,30.25
2022-11-29T06:33:07.148Z,31.95
2022-11-29T06:36:42.790Z,29.40
2022-11-29T06:39:47.044Z,30.05
2022-11-29T06:42:51.156Z,27.13
2022-11-29T06:46:36.900Z,27.75
2022-11-29T06:49:48.207Z,30.98
2022-11-29T06:53:04.565Z,28.45
2022-11-29T06:56:47.089Z,28.95
2022-11-29T07:00:00.232Z,27.55
2022-11-29T07:03:25.815Z,30.20
2022-11-29T07:06:30.330Z,29.17
2022-11-29T07:09:35.460Z,28.40
2022-11-29T07:12:40.078Z,25.70
2022-11-29T07:16:05.017Z,27.88
2022-11-29T07:19:41.120Z,28.13
2022-11-29T07:22:48.125Z,28.05
2022-11-29T07:25:55.293Z,28.05
2022-11-29T07:29:18.308Z,27.73
2022-11-29T07:32:25.305Z,27.58
2022-11-29T07:35:37.525Z,28.73
2022-11-29T07:38:54.327Z,23.17
2022-11-29T07:42:16.421Z,28.83
2022-11-29T07:45:36.069Z,26.52
2022-11-29T07:48:40.113Z,28.02
2022-11-29T07:51:44.843Z,26.48
2022-11-29T07:54:48.769Z,25.48
2022-11-29T07:57:52.948Z,24.45
2022-11-29T08:00:56.897Z,24.92
2022-11-29T08:04:00.908Z,27.05
2022-11-29T08:07:05.440Z,28.65
2022-11-29T08:10:12.816Z,30.40
2022-11-29T08:13:19.492Z,25.25
2022-11-29T08:16:23.578Z,25.33
2022-11-29T08:19:27.799Z,25.23
2022-11-29T08:22:31.961Z,24.70
2022-11-29T08:25:35.941Z,26.25
2022-11-29T08:28:40.329Z,24.80
2022-11-29T08:31:45.197Z,27.02
2022-11-29T08:34:49.373Z,27.75
2022-11-29T08:37:54.034Z,25.52
2022-11-29T08:41:02.760Z,23.90
2022-11-29T08:44:06.954Z,26.63
2022-11-29T08:47:29.733Z,27.90
2022-11-29T08:50:33.910Z,28.75
2022-11-29T08:53:46.068Z,23.00
2022-11-29T08:57:30.908Z,26.25
2022-11-29T09:00:15.114Z,25.77
2022-11-29T09:03:37.709Z,23.30
2022-11-29T09:06:45.418Z,23.83
2022-11-29T09:09:49.243Z,22.02
2022-11-29T09:12:52.929Z,26.48
2022-11-29T09:15:57.514Z,26.00
2022-11-29T09:19:01.895Z,21.63
2022-11-29T09:22:05.957Z,24.65
2022-11-29T09:25:10.220Z,25.02
2022-11-29T09:28:14.365Z,25.08
2022-11-29T09:31:19.992Z,25.75
2022-11-29T09:34:24.479Z,24.02
2022-11-29T09:37:28.321Z,21.58
2022-11-29T09:40:38.856Z,24.88
2022-11-29T09:44:00.814Z,24.17
2022-11-29T09:47:33.222Z,24.00
2022-11-29T09:50:48.854Z,23.27
2022-11-29T09:54:00.314Z,24.80
2022-11-29T09:57:10.594Z,21.98
2022-11-29T10:00:17.885Z,21.58
2022-11-29T10:03:44.467Z,21.55
2022-11-29T10:07:06.645Z,22.92
2022-11-29T10:10:23.692Z,23.33
2022-11-29T10:13:30.497Z,22.75
2022-11-29T10:16:54.939Z,24.27
2022-11-29T10:20:17.759Z,22.88
2022-11-29T10:23:34.002Z,19.95
2022-11-29T10:26:38.143Z,21.27
2022-11-29T10:29:42.367Z,21.10
2022-11-29T10:32:51.900Z,22.58
2022-11-29T10:36:02.368Z,20.10
2022-11-29T10:39:18.357Z,24.25
2022-11-29T10:42:43.159Z,24.25
2022-11-29T10:45:50.897Z,22.48
2022-11-29T10:48:55.942Z,20.73
2022-11-29T10:52:00.147Z,21.60
2022-11-29T10:55:04.794Z,20.20
2022-11-29T10:58:10.453Z,21.02
2022-11-29T11:01:16.687Z,21.73
2022-11-29T11:04:27.396Z,20.35
2022-11-29T11:07:36.161Z,19.95
2022-11-29T11:10:41.340Z,22.25
2022-11-29T11:13:58.768Z,20.55
2022-11-29T11:17:14.942Z,20.05
2022-11-29T11:20:21.337Z,22.02
2022-11-29T11:23:42.736Z,24.13
2022-11-29T11:26:46.870Z,18.75
2022-11-29T11:29:52.842Z,19.75
2022-11-29T11:33:34.775Z,21.60
2022-11-29T11:36:38.959Z,19.60
2022-11-29T11:39:45.047Z,20.05
2022-11-29T11:42:49.203Z,20.50
2022-11-29T11:45:54.620Z,21.33
2022-11-29T11:48:58.685Z,24.15
2022-11-29T11:52:05.898Z,20.60
2022-11-29T11:55:19.009Z,20.38
2022-11-29T11:58:27.444Z,22.73
2022-11-29T12:01:38.860Z,20.95
2022-11-29T12:04:43.964Z,20.02
2022-11-29T12:08:08.930Z,18.33
2022-11-29T12:11:17.113Z,20.15
2022-11-29T12:14:28.354Z,17.65
2022-11-29T12:17:38.449Z,19.55
2022-11-29T12:20:52.692Z,19.90
2022-11-29T12:24:28.499Z,20.23
2022-11-29T12:27:32.651Z,19.67
2022-11-29T12:30:41.397Z,20.90
2022-11-29T12:33:54.564Z,21.90
2022-11-29T12:37:14.934Z,24.58
2022-11-29T12:40:34.184Z,19.67
2022-11-29T12:44:13.910Z,18.08
2022-11-29T12:47:37.067Z,20.50
2022-11-29T12:51:07.042Z,22.97
2022-11-29T12:54:29.294Z,19.60
2022-11-29T12:57:41.163Z,19.73
2022-11-29T13:01:12.539Z,20.63
2022-11-29T13:04:29.137Z,21.00
2022-11-29T13:07:59.681Z,20.45
2022-11-29T13:11:15.240Z,19.95
2022-11-29T13:14:42.601Z,17.83
2022-11-29T13:18:22.655Z,18.45
2022-11-29T13:21:44.015Z,22.33
2022-11-29T13:24:59.468Z,22.33
2022-11-29T13:28:11.041Z,20.55
2022-11-29T13:31:21.552Z,18.15
2022-11-29T13:34:48.258Z,24.67
2022-11-29T13:38:08.027Z,19.20
2022-11-29T13:41:30.854Z,19.48
2022-11-29T13:45:17.400Z,22.60
2022-11-29T13:48:28.447Z,18.48
2022-11-29T13:51:37.317Z,18.60
2022-11-29T13:54:41.509Z,20.65
2022-11-29T13:58:14.895Z,18.52
2022-11-29T14:01:14.802Z,19.58
2022-11-29T14:04:30.041Z,17.75
2022-11-29T14:07:35.614Z,19.75
2022-11-29T14:10:39.858Z,19.63
2022-11-29T14:14:02.261Z,18.48
2022-11-29T14:17:44.530Z,19.10
2022-11-29T14:20:55.179Z,21.45
2022-11-29T14:24:37.760Z,21.55
2022-11-29T14:27:47.039Z,21.08
2022-11-29T14:31:08.181Z,18.65
2022-11-29T14:34:18.364Z,20.83
2022-11-29T14:38:01.257Z,20.30
2022-11-29T14:41:47.003Z,18.15
2022-11-29T14:44:54.262Z,19.60
2022-11-29T14:47:58.716Z,20.17
2022-11-29T14:51:12.459Z,19.05
2022-11-29T14:54:19.619Z,23.42
2022-11-29T14:58:01.021Z,18.42
2022-11-29T15:01:10.643Z,22.33
2022-11-29T15:04:15.655Z,18.58
2022-11-29T15:07:29.760Z,18.88
2022-11-29T15:10:38.904Z,21.98
2022-11-29T15:13:59.021Z,18.42
2022-11-29T15:17:11.388Z,18.98
2022-11-29T15:20:34.960Z,18.80
2022-11-29T15:23:42.360Z,18.65
2022-11-29T15:26:57.601Z,18.98
2022-11-29T15:30:20.700Z,19.38
2022-11-29T15:33:25.700Z,19.15
2022-11-29T15:36:30.480Z,21.80
2022-11-29T15:39:37.391Z,20.30
2022-11-29T15:43:16.475Z,21.05
2022-11-29T15:46:29.552Z,20.67
2022-11-29T15:49:33.651Z,24.25
2022-11-29T15:52:38.412Z,25.42
2022-11-29T15:55:44.192Z,19.27
2022-11-29T15:58:49.710Z,21.90
2022-11-29T16:01:57.846Z,19.50
2022-11-29T16:05:09.256Z,25.27
2022-11-29T16:08:20.925Z,19.90
2022-11-29T16:11:28.452Z,25.30
2022-11-29T16:14:32.736Z,26.13
2022-11-29T16:17:36.837Z,22.60
2022-11-29T16:20:41.033Z,20.33
2022-11-29T16:23:46.642Z,20.92
2022-11-29T16:26:51.201Z,20.20
2022-11-29T16:29:55.615Z,18.80
2022-11-29T16:33:01.527Z,21.67
2022-11-29T16:36:11.366Z,22.77
2022-11-29T16:39:25.276Z,18.40
2022-11-29T16:42:32.258Z,22.90
2022-11-29T16:45:38.382Z,19.52
2022-11-29T16:48:42.706Z,19.42
2022-11-29T16:51:48.480Z,17.05
2022-11-29T16:54:52.462Z,20.42
2022-11-29T16:57:56.659Z,19.40
2022-11-29T17:01:15.975Z,17.67
2022-11-29T17:04:23.677Z,21.08
2022-11-29T17:07:33.618Z,21.60
2022-11-29T17:10:37.952Z,21.60
2022-11-29T17:13:42.267Z,16.20
2022-11-29T17:16:49.272Z,19.13
2022-11-29T17:19:53.286Z,18.35
2022-11-29T17:22:57.277Z,18.85
2022-11-29T17:26:02.486Z,18.05
2022-11-29T17:29:07.040Z,18.63
2022-11-29T17:32:10.931Z,18.83
2022-11-29T17:35:15.460Z,19.20
2022-11-29T17:38:19.342Z,17.95
2022-11-29T17:41:25.931Z,19.85
2022-11-29T17:44:29.971Z,19.80
2022-11-29T17:47:33.851Z,20.30
2022-11-29T17:50:38.860Z,20.00
2022-11-29T17:53:43.160Z,19.42
2022-11-29T17:56:47.026Z,19.00
2022-11-29T17:59:51.014Z,19.73
2022-11-29T18:02:55.400Z,21.08
2022-11-29T18:06:01.117Z,22.73
2022-11-29T18:09:07.115Z,26.13
2022-11-29T18:12:11.521Z,22.67
2022-11-29T18:15:15.482Z,17.40
2022-11-29T18:18:19.682Z,22.08
2022-11-29T18:21:24.205Z,18.35
2022-11-29T18:24:28.448Z,21.88
2022-11-29T18:27:32.408Z,20.45
2022-11-29T18:30:36.441Z,20.52
2022-11-29T18:33:42.081Z,22.10
2022-11-29T18:36:48.440Z,22.17
2022-11-29T18:39:52.833Z,24.10
2022-11-29T18:42:57.065Z,17.48
2022-11-29T18:46:14.077Z,20.80
2022-11-29T18:49:18.635Z,21.73
2022-11-29T18:52:22.684Z,20.40
2022-11-29T18:55:26.998Z,23.05
2022-11-29T18:58:31.389Z,18.23
2022-11-29T19:01:40.408Z,20.10
2022-11-29T19:04:45.151Z,22.42
2022-11-29T19:07:49.220Z,18.30
2022-11-29T19:10:53.396Z,20.15
2022-11-29T19:14:03.828Z,19.83
2022-11-29T19:17:08.076Z,20.45
2022-11-29T19:20:12.473Z,23.75
2022-11-29T19:23:16.295Z,19.92
2022-11-29T19:26:21.884Z,21.73
2022-11-29T19:29:26.041Z,19.10
2022-11-29T19:32:30.323Z,23.73
2022-11-29T19:35:34.593Z,24.85
2022-11-29T19:38:39.610Z,24.00
2022-11-29T19:41:46.224Z,20.55
2022-11-29T19:48:15.529Z,20.00
2022-11-29T19:51:20.428Z,19.40
2022-11-29T19:54:24.328Z,16.42
2022-11-29T19:57:28.551Z,18.48
2022-11-29T20:00:32.788Z,18.08
2022-11-29T20:03:37.822Z,17.48
2022-11-29T20:06:44.225Z,16.52
2022-11-29T20:09:48.634Z,17.70
2022-11-29T20:12:54.073Z,16.42
2022-11-29T20:16:05.266Z,20.23
2022-11-29T20:19:12.299Z,17.83
2022-11-29T20:22:16.535Z,18.58
2022-11-29T20:25:20.796Z,19.48
2022-11-29T20:28:24.936Z,20.63
2022-11-29T20:31:29.547Z,17.95
2022-11-29T20:34:33.384Z,21.13
2022-11-29T20:37:47.540Z,22.88
2022-11-29T20:41:03.369Z,48.80
2022-11-29T20:44:12.446Z,36.33
2022-11-29T20:47:19.373Z,18.65
2022-11-29T20:50:26.467Z,20.83
2022-11-29T20:53:46.110Z,20.15
2022-11-29T20:56:50.295Z,18.80
2022-11-29T20:59:54.490Z,22.95
2022-11-29T21:02:58.653Z,19.15
2022-11-29T21:06:05.016Z,20.08
2022-11-29T21:09:09.494Z,22.10
2022-11-29T21:12:14.397Z,22.70
2022-11-29T21:15:19.108Z,20.67
2022-11-29T21:18:25.956Z,19.52
2022-11-29T21:21:39.476Z,22.52
2022-11-29T21:24:49.694Z,20.20
2022-11-29T21:27:55.088Z,20.85
2022-11-29T21:30:59.576Z,21.08
2022-11-29T21:34:04.076Z,24.33
2022-11-29T21:37:08.897Z,21.73
2022-11-29T21:40:14.396Z,23.48
2022-11-29T21:43:18.437Z,22.90
2022-11-29T21:46:22.759Z,22.65
2022-11-29T21:49:26.823Z,23.30
2022-11-29T21:52:30.963Z,22.33
2022-11-29T21:55:34.903Z,21.00
2022-11-29T21:58:40.242Z,21.77
2022-11-29T22:01:44.648Z,20.20
2022-11-29T22:04:49.012Z,20.00
2022-11-29T22:07:56.632Z,22.42
2022-11-29T22:11:16.880Z,23.70
2022-11-29T22:14:20.930Z,20.45
2022-11-29T22:17:25.281Z,20.42
2022-11-29T22:20:29.532Z,20.98
2022-11-29T22:23:34.236Z,22.17
2022-11-29T22:26:38.704Z,21.67
2022-11-29T22:29:42.522Z,20.00
2022-11-29T22:32:46.668Z,20.92
2022-11-29T22:35:50.760Z,21.10
2022-11-29T22:38:54.861Z,20.80
2022-11-29T22:41:58.713Z,20.73
2022-11-29T22:45:04.032Z,18.05
2022-11-29T22:48:07.952Z,23.10
2022-11-29T22:51:13.426Z,19.90
2022-11-29T22:54:18.079Z,20.42
2022-11-29T22:57:22.134Z,20.35
2022-11-29T23:00:26.272Z,20.02
2022-11-29T23:03:33.062Z,20.58
2022-11-29T23:06:40.065Z,20.85
2022-11-29T23:09:44.054Z,22.45
2022-11-29T23:12:48.148Z,20.00
2022-11-29T23:15:52.819Z,20.55
2022-11-29T23:18:58.302Z,19.80
2022-11-29T23:22:02.635Z,20.35
2022-11-29T23:25:07.174Z,23.48
2022-11-29T23:28:11.181Z,19.92
2022-11-29T23:31:15.913Z,21.65
2022-11-29T23:34:20.197Z,23.45
2022-11-29T23:37:24.336Z,24.20
2022-11-29T23:40:28.598Z,22.63
2022-11-29T23:43:35.209Z,27.02
2022-11-29T23:46:39.199Z,21.23
2022-11-29T23:49:42.941Z,23.33
2022-11-29T23:52:52.734Z,22.20
2022-11-29T23:55:58.852Z,22.25
2022-11-29T23:59:03.539Z,23.55
